^^
Grace C. Lehan Memorial Weather Station Historical Data
Daily Summary for April 13, 2021 Units:  Both    English   Metric
Daily Weekly Monthly Yearly
  High: Low: Average:
Temperature: 82.3 °F /  27.9 °C 66.4 °F /  19.1 °C 75 °F /  23.9 °C
Dew Point: 68.2 °F /  20.1 °C 56.6 °F /  13.7 °C 62.7 °F /  17.1 °C
Humidity: 85.3% 43.3% 67%
Wind Speed: 7mph /  11.3km/h - 1.3mph /  2.1km/h
Wind Gust: 17mph /  27.4km/h - -
Wind- - WNW
Pressure: 30.03 in /  1016.8 hPa 29.86 in /  1011.1 hPa -
Precipitation: 0.00 in /  0 mm    
 
 
Tabular Data for April 13, 2021
Time Temperature Dew Point Pressure Wind Wind Speed Wind Gust Humidity Rainfall Rate (Hourly) solar
00:09 73.8 °F /  23.2 °C 67.6 °F /  19.8 °C 29.94in /  1013.8hPa Calm     81% 0.00in /  0mm 0 W/m2
00:14 73.8 °F /  23.2 °C 67.6 °F /  19.8 °C 29.93in /  1013.4hPa Calm     81% 0.00in /  0mm 0 W/m2
00:19 73.7 °F /  23.2 °C 67.5 °F /  19.7 °C 29.93in /  1013.4hPa Calm     81% 0.00in /  0mm 0 W/m2
00:24 73.6 °F /  23.1 °C 67.5 °F /  19.7 °C 29.93in /  1013.4hPa Calm   1mph /  1.6km/h 81% 0.00in /  0mm 0 W/m2
00:29 73.6 °F /  23.1 °C 67.6 °F /  19.8 °C 29.93in /  1013.4hPa Calm   1mph /  1.6km/h 81.6% 0.00in /  0mm 0 W/m2
00:34 73.5 °F /  23.1 °C 67.7 °F /  19.8 °C 29.93in /  1013.4hPa Calm   1mph /  1.6km/h 82% 0.00in /  0mm 0 W/m2
00:39 73.4 °F /  23 °C 67.6 °F /  19.8 °C 29.92in /  1013.1hPa Calm   2mph /  3.2km/h 82% 0.00in /  0mm 0 W/m2
00:44 73.4 °F /  23 °C 67.6 °F /  19.8 °C 29.92in /  1013.1hPa Calm   2mph /  3.2km/h 82% 0.00in /  0mm 0 W/m2
00:49 73.4 °F /  23 °C 67.6 °F /  19.8 °C 29.92in /  1013.1hPa Calm   2mph /  3.2km/h 82% 0.00in /  0mm 0 W/m2
00:54 73.4 °F /  23 °C 67.6 °F /  19.8 °C 29.92in /  1013.1hPa Calm   2mph /  3.2km/h 82% 0.00in /  0mm 0 W/m2
00:59 73.4 °F /  23 °C 67.6 °F /  19.8 °C 29.92in /  1013.1hPa Calm   2mph /  3.2km/h 82% 0.00in /  0mm 0 W/m2
01:04 73.3 °F /  22.9 °C 67.5 °F /  19.7 °C 29.92in /  1013.1hPa Calm   3mph /  4.8km/h 82% 0.00in /  0mm 0 W/m2
01:09 73.3 °F /  22.9 °C 67.5 °F /  19.7 °C 29.92in /  1013.1hPa Calm   3mph /  4.8km/h 82% 0.00in /  0mm 0 W/m2
01:14 73.3 °F /  22.9 °C 67.5 °F /  19.7 °C 29.92in /  1013.1hPa Calm   3mph /  4.8km/h 82% 0.00in /  0mm 0 W/m2
01:19 73.3 °F /  22.9 °C 67.5 °F /  19.7 °C 29.91in /  1012.8hPa Calm   3mph /  4.8km/h 82% 0.00in /  0mm 0 W/m2
01:24 73.3 °F /  22.9 °C 67.5 °F /  19.7 °C 29.91in /  1012.8hPa WSW 0.1mph /  0.2km/h 3mph /  4.8km/h 82% 0.00in /  0mm 0 W/m2
01:29 73.3 °F /  22.9 °C 67.5 °F /  19.7 °C 29.91in /  1012.8hPa Calm   3mph /  4.8km/h 82% 0.00in /  0mm 0 W/m2
01:34 73.3 °F /  22.9 °C 67.5 °F /  19.7 °C 29.92in /  1013.1hPa Calm   3mph /  4.8km/h 82% 0.00in /  0mm 0 W/m2
01:39 73.3 °F /  22.9 °C 67.5 °F /  19.7 °C 29.92in /  1013.1hPa Calm   1mph /  1.6km/h 82% 0.00in /  0mm 0 W/m2
01:44 73.2 °F /  22.9 °C 67.4 °F /  19.7 °C 29.92in /  1013.1hPa WSW 0.1mph /  0.2km/h 3mph /  4.8km/h 82% 0.00in /  0mm 0 W/m2
01:49 73.2 °F /  22.9 °C 67.7 °F /  19.8 °C 29.91in /  1012.8hPa WSW 0.1mph /  0.2km/h 3mph /  4.8km/h 82.9% 0.00in /  0mm 0 W/m2
01:54 73.2 °F /  22.9 °C 67.7 °F /  19.8 °C 29.91in /  1012.8hPa WSW 0.1mph /  0.2km/h 3mph /  4.8km/h 83% 0.00in /  0mm 0 W/m2
01:59 73.2 °F /  22.9 °C 67.7 °F /  19.8 °C 29.91in /  1012.8hPa WSW 0.1mph /  0.2km/h 3mph /  4.8km/h 83% 0.00in /  0mm 0 W/m2
02:04 73.3 °F /  22.9 °C 67.8 °F /  19.9 °C 29.91in /  1012.8hPa WSW 0.1mph /  0.2km/h 3mph /  4.8km/h 83% 0.00in /  0mm 0 W/m2
02:09 73.3 °F /  22.9 °C 67.8 °F /  19.9 °C 29.91in /  1012.8hPa Calm   2mph /  3.2km/h 83% 0.00in /  0mm 0 W/m2
02:14 73.2 °F /  22.9 °C 67.7 °F /  19.8 °C 29.91in /  1012.8hPa Calm   2mph /  3.2km/h 83% 0.00in /  0mm 0 W/m2
02:19 73.2 °F /  22.9 °C 67.7 °F /  19.8 °C 29.91in /  1012.8hPa Calm   2mph /  3.2km/h 83% 0.00in /  0mm 0 W/m2
02:24 73.1 °F /  22.8 °C 67.7 °F /  19.8 °C 29.91in /  1012.8hPa Calm   2mph /  3.2km/h 83% 0.00in /  0mm 0 W/m2
02:29 73.1 °F /  22.8 °C 67.6 °F /  19.8 °C 29.91in /  1012.8hPa Calm   2mph /  3.2km/h 83% 0.00in /  0mm 0 W/m2
02:34 73 °F /  22.8 °C 67.5 °F /  19.7 °C 29.90in /  1012.4hPa Calm   2mph /  3.2km/h 83% 0.00in /  0mm 0 W/m2
02:39 73 °F /  22.8 °C 67.5 °F /  19.7 °C 29.90in /  1012.4hPa Calm   1mph /  1.6km/h 83% 0.00in /  0mm 0 W/m2
02:44 72.9 °F /  22.7 °C 67.4 °F /  19.7 °C 29.90in /  1012.4hPa Calm   1mph /  1.6km/h 83% 0.00in /  0mm 0 W/m2
02:49 72.8 °F /  22.7 °C 67.3 °F /  19.6 °C 29.90in /  1012.4hPa Calm   1mph /  1.6km/h 83% 0.00in /  0mm 0 W/m2
02:54 72.8 °F /  22.7 °C 67.3 °F /  19.6 °C 29.90in /  1012.4hPa Calm   1mph /  1.6km/h 83% 0.00in /  0mm 0 W/m2
02:59 72.6 °F /  22.6 °C 67.3 °F /  19.6 °C 29.90in /  1012.4hPa Calm   1mph /  1.6km/h 83.4% 0.00in /  0mm 0 W/m2
03:04 72.5 °F /  22.5 °C 67.4 °F /  19.7 °C 29.90in /  1012.4hPa Calm   1mph /  1.6km/h 84% 0.00in /  0mm 0 W/m2
03:09 72.4 °F /  22.4 °C 67.3 °F /  19.6 °C 29.90in /  1012.4hPa Calm     84% 0.00in /  0mm 0 W/m2
03:14 72.3 °F /  22.4 °C 67.2 °F /  19.6 °C 29.91in /  1012.8hPa Calm     84% 0.00in /  0mm 0 W/m2
03:19 72.2 °F /  22.3 °C 67.3 °F /  19.6 °C 29.91in /  1012.8hPa WSW 1.1mph /  1.8km/h 6mph /  9.7km/h 84.5% 0.00in /  0mm 0 W/m2
03:24 72.2 °F /  22.3 °C 67.4 °F /  19.7 °C 29.91in /  1012.8hPa WSW 0.2mph /  0.3km/h 6mph /  9.7km/h 84.9% 0.00in /  0mm 0 W/m2
03:29 72.2 °F /  22.3 °C 67.4 °F /  19.7 °C 29.91in /  1012.8hPa WSW 1.2mph /  1.9km/h 7mph /  11.3km/h 85% 0.00in /  0mm 0 W/m2
03:34 72.2 °F /  22.3 °C 67.4 °F /  19.7 °C 29.91in /  1012.8hPa WSW 0.6mph /  1km/h 7mph /  11.3km/h 85% 0.00in /  0mm 0 W/m2
03:39 72.2 °F /  22.3 °C 67.4 °F /  19.7 °C 29.90in /  1012.4hPa WSW 0.8mph /  1.3km/h 9mph /  14.5km/h 85% 0.00in /  0mm 0 W/m2
03:44 72.2 °F /  22.3 °C 67.4 °F /  19.7 °C 29.90in /  1012.4hPa WSW 0.4mph /  0.6km/h 9mph /  14.5km/h 85% 0.00in /  0mm 0 W/m2
03:49 72.3 °F /  22.4 °C 67.5 °F /  19.7 °C 29.90in /  1012.4hPa West 0.7mph /  1.1km/h 9mph /  14.5km/h 85% 0.00in /  0mm 0 W/m2
03:54 72.4 °F /  22.4 °C 67.6 °F /  19.8 °C 29.89in /  1012.1hPa WSW 2.6mph /  4.2km/h 12mph /  19.3km/h 85% 0.00in /  0mm 0 W/m2
03:59 72.5 °F /  22.5 °C 67.7 °F /  19.8 °C 29.89in /  1012.1hPa WSW 2.4mph /  3.9km/h 12mph /  19.3km/h 85% 0.00in /  0mm 0 W/m2
04:00 72.6 °F /  22.6 °C 67.8 °F /  19.9 °C 29.89in /  1012.1hPa WNW 1mph /  1.6km/h 12mph /  19.3km/h 85% 0.00in /  0mm 0 W/m2
04:09 73 °F /  22.8 °C 67.9 °F /  19.9 °C 29.89in /  1012.1hPa West 3.8mph /  6.1km/h 13mph /  20.9km/h 84% 0.00in /  0mm 0 W/m2
04:14 73.2 °F /  22.9 °C 67.8 °F /  19.9 °C 29.89in /  1012.1hPa WSW 2.9mph /  4.7km/h 13mph /  20.9km/h 83.2% 0.00in /  0mm 0 W/m2
04:19 73.4 °F /  23 °C 67.9 °F /  19.9 °C 29.89in /  1012.1hPa SW 2.6mph /  4.2km/h 13mph /  20.9km/h 83% 0.00in /  0mm 0 W/m2
04:24 73.5 °F /  23.1 °C 68 °F /  20 °C 29.89in /  1012.1hPa West 3.2mph /  5.1km/h 13mph /  20.9km/h 82.9% 0.00in /  0mm 0 W/m2
04:29 73.6 °F /  23.1 °C 67.7 °F /  19.8 °C 29.89in /  1012.1hPa WSW 3.3mph /  5.3km/h 13mph /  20.9km/h 82% 0.00in /  0mm 0 W/m2
04:34 73.6 °F /  23.1 °C 67.8 °F /  19.9 °C 29.89in /  1012.1hPa WSW 4.8mph /  7.7km/h 14mph /  22.5km/h 82% 0.00in /  0mm 0 W/m2
04:39 73.6 °F /  23.1 °C 67.8 °F /  19.9 °C 29.89in /  1012.1hPa WSW 2.1mph /  3.4km/h 14mph /  22.5km/h 82% 0.00in /  0mm 0 W/m2
04:44 73.7 °F /  23.2 °C 67.8 °F /  19.9 °C 29.88in /  1011.7hPa WSW 2mph /  3.2km/h 14mph /  22.5km/h 82% 0.00in /  0mm 0 W/m2
04:49 73.6 °F /  23.1 °C 67.8 °F /  19.9 °C 29.86in /  1011.1hPa West 0.3mph /  0.5km/h 14mph /  22.5km/h 82% 0.00in /  0mm 0 W/m2
04:54 73.6 °F /  23.1 °C 67.8 °F /  19.9 °C 29.88in /  1011.7hPa West 0.5mph /  0.8km/h 14mph /  22.5km/h 82% 0.00in /  0mm 0 W/m2
04:59 73.5 °F /  23.1 °C 67.7 °F /  19.8 °C 29.88in /  1011.7hPa WSW 1.4mph /  2.3km/h 14mph /  22.5km/h 82% 0.00in /  0mm 0 W/m2
05:04 73.5 °F /  23.1 °C 67.7 °F /  19.8 °C 29.88in /  1011.7hPa WSW 2.5mph /  4km/h 14mph /  22.5km/h 82% 0.00in /  0mm 0 W/m2
05:09 73.4 °F /  23 °C 67.6 °F /  19.8 °C 29.87in /  1011.4hPa WSW 1.9mph /  3.1km/h 10mph /  16.1km/h 82% 0.00in /  0mm 0 W/m2
05:14 73.4 °F /  23 °C 67.6 °F /  19.8 °C 29.87in /  1011.4hPa WSW 1.6mph /  2.6km/h 10mph /  16.1km/h 82% 0.00in /  0mm 0 W/m2
05:19 73.4 °F /  23 °C 67.6 °F /  19.8 °C 29.87in /  1011.4hPa West 1mph /  1.6km/h 10mph /  16.1km/h 82.3% 0.00in /  0mm 0 W/m2
05:24 73.3 °F /  22.9 °C 67.8 °F /  19.9 °C 29.88in /  1011.7hPa West 1.3mph /  2.1km/h 10mph /  16.1km/h 83% 0.00in /  0mm 0 W/m2
05:29 73.2 °F /  22.9 °C 67.7 °F /  19.8 °C 29.88in /  1011.7hPa WSW 0.4mph /  0.6km/h 10mph /  16.1km/h 83% 0.00in /  0mm 0 W/m2
05:34 73.1 °F /  22.8 °C 67.7 °F /  19.8 °C 29.88in /  1011.7hPa WSW 0.4mph /  0.6km/h 10mph /  16.1km/h 83% 0.00in /  0mm 0 W/m2
05:39 73 °F /  22.8 °C 67.6 °F /  19.8 °C 29.88in /  1011.7hPa WSW 0.3mph /  0.5km/h 4mph /  6.4km/h 83% 0.00in /  0mm 0 W/m2
05:44 72.9 °F /  22.7 °C 67.5 °F /  19.7 °C 29.88in /  1011.7hPa WSW 0.3mph /  0.5km/h 4mph /  6.4km/h 83% 0.00in /  0mm 0 W/m2
05:49 72.8 °F /  22.7 °C 67.4 °F /  19.7 °C 29.87in /  1011.4hPa WSW 0.1mph /  0.2km/h 4mph /  6.4km/h 83% 0.00in /  0mm 0 W/m2
05:54 72.8 °F /  22.7 °C 67.5 °F /  19.7 °C 29.87in /  1011.4hPa Calm   4mph /  6.4km/h 83.5% 0.00in /  0mm 0 W/m2
05:59 72.7 °F /  22.6 °C 67.6 °F /  19.8 °C 29.86in /  1011.1hPa Calm   4mph /  6.4km/h 84% 0.00in /  0mm 0 W/m2
06:04 72.6 °F /  22.6 °C 67.5 °F /  19.7 °C 29.87in /  1011.4hPa Calm   4mph /  6.4km/h 84% 0.00in /  0mm 0 W/m2
06:09 72.5 °F /  22.5 °C 67.4 °F /  19.7 °C 29.88in /  1011.7hPa Calm     84% 0.00in /  0mm 0 W/m2
06:14 72.4 °F /  22.4 °C 67.4 °F /  19.7 °C 29.89in /  1012.1hPa West 0.6mph /  1km/h 5mph /  8km/h 84.4% 0.00in /  0mm 0 W/m2
06:19 72.2 °F /  22.3 °C 67.5 °F /  19.7 °C 29.89in /  1012.1hPa West 0.6mph /  1km/h 6mph /  9.7km/h 85% 0.00in /  0mm 0 W/m2
06:24 72.2 °F /  22.3 °C 67.4 °F /  19.7 °C 29.90in /  1012.4hPa West 1.1mph /  1.8km/h 6mph /  9.7km/h 85% 0.00in /  0mm 0 W/m2
06:29 72.2 °F /  22.3 °C 67.4 °F /  19.7 °C 29.90in /  1012.4hPa West 2.2mph /  3.5km/h 7mph /  11.3km/h 85% 0.00in /  0mm 0 W/m2
06:34 72.1 °F /  22.3 °C 67.4 °F /  19.7 °C 29.90in /  1012.4hPa WSW 2.5mph /  4km/h 9mph /  14.5km/h 85% 0.00in /  0mm 0 W/m2
06:39 72.1 °F /  22.3 °C 67.3 °F /  19.6 °C 29.91in /  1012.8hPa West 2.4mph /  3.9km/h 9mph /  14.5km/h 85% 0.00in /  0mm 0 W/m2
06:44 72.1 °F /  22.3 °C 67.4 °F /  19.7 °C 29.91in /  1012.8hPa WSW 2.4mph /  3.9km/h 9mph /  14.5km/h 85% 0.00in /  0mm 0 W/m2
06:48 72.1 °F /  22.3 °C 67.4 °F /  19.7 °C 29.91in /  1012.8hPa WSW 2.2mph /  3.5km/h 10mph /  16.1km/h 85% 0.00in /  0mm 5 W/m2
06:54 72.2 °F /  22.3 °C 67.4 °F /  19.7 °C 29.92in /  1013.1hPa West 0.7mph /  1.1km/h 10mph /  16.1km/h 85% 0.00in /  0mm 12 W/m2
06:59 72.2 °F /  22.3 °C 67.5 °F /  19.7 °C 29.92in /  1013.1hPa West 0.9mph /  1.4km/h 10mph /  16.1km/h 85% 0.00in /  0mm 19 W/m2
07:04 72.3 °F /  22.4 °C 67.5 °F /  19.7 °C 29.92in /  1013.1hPa West 0.8mph /  1.3km/h 10mph /  16.1km/h 85% 0.00in /  0mm 26 W/m2
07:09 72.3 °F /  22.4 °C 67.6 °F /  19.8 °C 29.92in /  1013.1hPa Calm   5mph /  8km/h 85.2% 0.00in /  0mm 28 W/m2
07:14 72.4 °F /  22.4 °C 67.8 °F /  19.9 °C 29.92in /  1013.1hPa Calm   5mph /  8km/h 85.3% 0.00in /  0mm 26 W/m2
07:19 72.5 °F /  22.5 °C 67.7 °F /  19.8 °C 29.93in /  1013.4hPa Calm   5mph /  8km/h 85% 0.00in /  0mm 30 W/m2
07:24 72.5 °F /  22.5 °C 67.8 °F /  19.9 °C 29.93in /  1013.4hPa WNW 1.1mph /  1.8km/h 6mph /  9.7km/h 85% 0.00in /  0mm 37 W/m2
07:29 72.7 °F /  22.6 °C 67.9 °F /  19.9 °C 29.93in /  1013.4hPa WNW 1.4mph /  2.3km/h 7mph /  11.3km/h 85% 0.00in /  0mm 42 W/m2
07:34 72.8 °F /  22.7 °C 68 °F /  20 °C 29.93in /  1013.4hPa West 2.3mph /  3.7km/h 9mph /  14.5km/h 84.9% 0.00in /  0mm 47 W/m2
07:39 73 °F /  22.8 °C 67.9 °F /  19.9 °C 29.94in /  1013.8hPa WNW 2.8mph /  4.5km/h 10mph /  16.1km/h 84% 0.00in /  0mm 47 W/m2
07:44 73.2 °F /  22.9 °C 68.1 °F /  20.1 °C 29.95in /  1014.1hPa WNW 1.5mph /  2.4km/h 10mph /  16.1km/h 84% 0.00in /  0mm 47 W/m2
07:49 73.3 °F /  22.9 °C 68.2 °F /  20.1 °C 29.95in /  1014.1hPa WNW 4.8mph /  7.7km/h 13mph /  20.9km/h 83.9% 0.00in /  0mm 44 W/m2
07:54 73.3 °F /  22.9 °C 67.8 °F /  19.9 °C 29.95in /  1014.1hPa NW 4.4mph /  7.1km/h 13mph /  20.9km/h 82.9% 0.00in /  0mm 49 W/m2
07:59 73.2 °F /  22.9 °C 67.2 °F /  19.6 °C 29.95in /  1014.1hPa NW 4.5mph /  7.2km/h 13mph /  20.9km/h 81.4% 0.00in /  0mm 70 W/m2
08:00 73.2 °F /  22.9 °C 67 °F /  19.4 °C 29.95in /  1014.1hPa NNW 7mph /  11.3km/h 13mph /  20.9km/h 81% 0.00in /  0mm 70 W/m2
08:09 73.1 °F /  22.8 °C 66 °F /  18.9 °C 29.95in /  1014.1hPa NW 4.4mph /  7.1km/h 17mph /  27.4km/h 78.6% 0.00in /  0mm 98 W/m2
08:14 73 °F /  22.8 °C 66 °F /  18.9 °C 29.95in /  1014.1hPa NW 2.9mph /  4.7km/h 17mph /  27.4km/h 78.7% 0.00in /  0mm 113 W/m2
08:19 73 °F /  22.8 °C 65.7 °F /  18.7 °C 29.94in /  1013.8hPa NW 2.6mph /  4.2km/h 17mph /  27.4km/h 78% 0.00in /  0mm 118 W/m2
08:24 73 °F /  22.8 °C 64.7 °F /  18.2 °C 29.94in /  1013.8hPa WNW 6mph /  9.7km/h 17mph /  27.4km/h 75.2% 0.00in /  0mm 125 W/m2
08:29 73 °F /  22.8 °C 62.9 °F /  17.2 °C 29.94in /  1013.8hPa WNW 4.5mph /  7.2km/h 17mph /  27.4km/h 70.7% 0.00in /  0mm 125 W/m2
08:34 73 °F /  22.8 °C 61.5 °F /  16.4 °C 29.94in /  1013.8hPa NW 4.1mph /  6.6km/h 17mph /  27.4km/h 67.3% 0.00in /  0mm 174 W/m2
08:39 73 °F /  22.8 °C 61.2 °F /  16.2 °C 29.95in /  1014.1hPa NW 2mph /  3.2km/h 11mph /  17.7km/h 66.5% 0.00in /  0mm 258 W/m2
08:44 73.2 °F /  22.9 °C 61.6 °F /  16.4 °C 29.94in /  1013.8hPa WNW 3.5mph /  5.6km/h 11mph /  17.7km/h 67% 0.00in /  0mm 232 W/m2
08:49 73.4 °F /  23 °C 61.4 °F /  16.3 °C 29.94in /  1013.8hPa WNW 4.5mph /  7.2km/h 12mph /  19.3km/h 66.1% 0.00in /  0mm 227 W/m2
08:54 73.5 °F /  23.1 °C 61.2 °F /  16.2 °C 29.95in /  1014.1hPa NW 1.5mph /  2.4km/h 12mph /  19.3km/h 65.4% 0.00in /  0mm 279 W/m2
08:59 73.7 °F /  23.2 °C 61.3 °F /  16.3 °C 29.95in /  1014.1hPa NW 1.1mph /  1.8km/h 12mph /  19.3km/h 65.3% 0.00in /  0mm 343 W/m2
09:04 74.1 °F /  23.4 °C 61.3 °F /  16.3 °C 29.95in /  1014.1hPa Calm   12mph /  19.3km/h 64.4% 0.00in /  0mm 438 W/m2
09:09 74.7 °F /  23.7 °C 61.3 °F /  16.3 °C 29.96in /  1014.4hPa NW 0.8mph /  1.3km/h 4mph /  6.4km/h 63.1% 0.00in /  0mm 408 W/m2
09:14 75.3 °F /  24.1 °C 62 °F /  16.7 °C 29.96in /  1014.4hPa Calm   4mph /  6.4km/h 63.5% 0.00in /  0mm 392 W/m2
09:19 75.8 °F /  24.3 °C 62.4 °F /  16.9 °C 29.97in /  1014.8hPa NW 0.9mph /  1.4km/h 5mph /  8km/h 63.2% 0.00in /  0mm 392 W/m2
09:24 76.2 °F /  24.6 °C 60.4 °F /  15.8 °C 29.96in /  1014.4hPa NNW 0.2mph /  0.3km/h 6mph /  9.7km/h 58.1% 0.00in /  0mm 483 W/m2
09:29 76.6 °F /  24.8 °C 61.7 °F /  16.5 °C 29.97in /  1014.8hPa Calm   6mph /  9.7km/h 59.9% 0.00in /  0mm 483 W/m2
09:34 77.2 °F /  25.1 °C 61.3 °F /  16.3 °C 29.97in /  1014.8hPa North 0.6mph /  1km/h 6mph /  9.7km/h 58.2% 0.00in /  0mm 527 W/m2
09:39 77.7 °F /  25.4 °C 60.2 °F /  15.7 °C 29.97in /  1014.8hPa Calm   3mph /  4.8km/h 54.8% 0.00in /  0mm 548 W/m2
09:44 78.3 °F /  25.7 °C 60.7 °F /  15.9 °C 29.97in /  1014.8hPa Calm   3mph /  4.8km/h 54.8% 0.00in /  0mm 554 W/m2
09:49 78.8 °F /  26 °C 60.8 °F /  16 °C 29.97in /  1014.8hPa NE 0.1mph /  0.2km/h 3mph /  4.8km/h 54.1% 0.00in /  0mm 503 W/m2
09:54 79.3 °F /  26.3 °C 61 °F /  16.1 °C 29.97in /  1014.8hPa NE 0.8mph /  1.3km/h 6mph /  9.7km/h 53.6% 0.00in /  0mm 524 W/m2
09:59 79.6 °F /  26.4 °C 60.3 °F /  15.7 °C 29.97in /  1014.8hPa West 1.2mph /  1.9km/h 10mph /  16.1km/h 51.8% 0.00in /  0mm 496 W/m2
10:04 79.6 °F /  26.4 °C 59.8 °F /  15.4 °C 29.98in /  1015.1hPa WNW 0.7mph /  1.1km/h 10mph /  16.1km/h 50.8% 0.00in /  0mm 462 W/m2
10:09 79.7 °F /  26.5 °C 60.7 °F /  15.9 °C 29.98in /  1015.1hPa NW 0.2mph /  0.3km/h 4mph /  6.4km/h 52.4% 0.00in /  0mm 508 W/m2
10:14 79.8 °F /  26.6 °C 60.4 °F /  15.8 °C 29.98in /  1015.1hPa NNW 1.1mph /  1.8km/h 6mph /  9.7km/h 51.4% 0.00in /  0mm 555 W/m2
10:19 80 °F /  26.7 °C 59.4 °F /  15.2 °C 29.98in /  1015.1hPa NNW 2.6mph /  4.2km/h 10mph /  16.1km/h 49.5% 0.00in /  0mm 636 W/m2
10:24 79.8 °F /  26.6 °C 59.4 °F /  15.2 °C 29.98in /  1015.1hPa WNW 1.6mph /  2.6km/h 11mph /  17.7km/h 49.8% 0.00in /  0mm 608 W/m2
10:29 79.7 °F /  26.5 °C 59.9 °F /  15.5 °C 29.98in /  1015.1hPa NW 1.9mph /  3.1km/h 11mph /  17.7km/h 50.9% 0.00in /  0mm 649 W/m2
10:34 79.7 °F /  26.5 °C 59.9 °F /  15.5 °C 29.98in /  1015.1hPa WNW 2.1mph /  3.4km/h 11mph /  17.7km/h 50.9% 0.00in /  0mm 666 W/m2
10:39 79.8 °F /  26.6 °C 59.7 °F /  15.4 °C 29.98in /  1015.1hPa WNW 2.1mph /  3.4km/h 8mph /  12.9km/h 50.3% 0.00in /  0mm 671 W/m2
10:44 80 °F /  26.7 °C 60.5 °F /  15.8 °C 29.99in /  1015.5hPa NW 1.6mph /  2.6km/h 8mph /  12.9km/h 51.4% 0.00in /  0mm 671 W/m2
10:49 80.4 °F /  26.9 °C 60.8 °F /  16 °C 29.99in /  1015.5hPa NNW 3.1mph /  5km/h 10mph /  16.1km/h 51.4% 0.00in /  0mm 684 W/m2
10:54 80.5 °F /  26.9 °C 60.5 °F /  15.8 °C 29.99in /  1015.5hPa NW 2.2mph /  3.5km/h 10mph /  16.1km/h 50.5% 0.00in /  0mm 693 W/m2
10:59 80.7 °F /  27.1 °C 60.3 °F /  15.7 °C 29.99in /  1015.5hPa WNW 4.1mph /  6.6km/h 13mph /  20.9km/h 50% 0.00in /  0mm 703 W/m2
11:04 80.6 °F /  27 °C 60.1 °F /  15.6 °C 29.99in /  1015.5hPa NW 5.7mph /  9.2km/h 14mph /  22.5km/h 49.7% 0.00in /  0mm 712 W/m2
11:09 80.3 °F /  26.8 °C 59.8 °F /  15.4 °C 29.99in /  1015.5hPa WNW 4.5mph /  7.2km/h 14mph /  22.5km/h 49.7% 0.00in /  0mm 721 W/m2
11:14 80.1 °F /  26.7 °C 60.5 °F /  15.8 °C 29.98in /  1015.1hPa NW 3.5mph /  5.6km/h 14mph /  22.5km/h 51.3% 0.00in /  0mm 724 W/m2
11:19 80.1 °F /  26.7 °C 60.1 °F /  15.6 °C 29.99in /  1015.5hPa NW 3.4mph /  5.5km/h 14mph /  22.5km/h 50.4% 0.00in /  0mm 738 W/m2
11:24 80.2 °F /  26.8 °C 60.5 °F /  15.8 °C 29.99in /  1015.5hPa WNW 5mph /  8km/h 14mph /  22.5km/h 51.2% 0.00in /  0mm 745 W/m2
11:29 80.4 °F /  26.9 °C 61 °F /  16.1 °C 29.99in /  1015.5hPa WNW 3.5mph /  5.6km/h 14mph /  22.5km/h 51.7% 0.00in /  0mm 754 W/m2
11:34 80.4 °F /  26.9 °C 60.3 °F /  15.7 °C 29.98in /  1015.1hPa NW 4.1mph /  6.6km/h 14mph /  22.5km/h 50.3% 0.00in /  0mm 756 W/m2
11:39 80.4 °F /  26.9 °C 61.4 °F /  16.3 °C 29.98in /  1015.1hPa West 2.2mph /  3.5km/h 11mph /  17.7km/h 52.4% 0.00in /  0mm 429 W/m2
11:44 80.6 °F /  27 °C 61.6 °F /  16.4 °C 29.98in /  1015.1hPa West 2.2mph /  3.5km/h 11mph /  17.7km/h 52.4% 0.00in /  0mm 438 W/m2
11:49 80.6 °F /  27 °C 61.2 °F /  16.2 °C 29.98in /  1015.1hPa West 2.5mph /  4km/h 12mph /  19.3km/h 51.7% 0.00in /  0mm 438 W/m2
11:54 80.3 °F /  26.8 °C 61 °F /  16.1 °C 29.98in /  1015.1hPa WNW 2.4mph /  3.9km/h 12mph /  19.3km/h 51.7% 0.00in /  0mm 146 W/m2
11:59 80.1 °F /  26.7 °C 60.4 °F /  15.8 °C 29.98in /  1015.1hPa WNW 1.1mph /  1.8km/h 12mph /  19.3km/h 51.1% 0.00in /  0mm 84 W/m2
12:00 80.1 °F /  26.7 °C 62 °F /  16.7 °C 29.98in /  1015.1hPa Calm   12mph /  19.3km/h 54% 0.00in /  0mm 69 W/m2
12:09 80 °F /  26.7 °C 61.4 °F /  16.3 °C 29.97in /  1014.8hPa WNW 1.5mph /  2.4km/h 7mph /  11.3km/h 53% 0.00in /  0mm 69 W/m2
12:14 79.8 °F /  26.6 °C 60.6 °F /  15.9 °C 29.97in /  1014.8hPa NW 3.5mph /  5.6km/h 13mph /  20.9km/h 51.9% 0.00in /  0mm 93 W/m2
12:19 79.6 °F /  26.4 °C 59.2 °F /  15.1 °C 29.96in /  1014.4hPa WNW 7mph /  11.3km/h 15mph /  24.1km/h 49.8% 0.00in /  0mm 93 W/m2
12:24 79.2 °F /  26.2 °C 58.8 °F /  14.9 °C 29.96in /  1014.4hPa West 3.6mph /  5.8km/h 15mph /  24.1km/h 49.7% 0.00in /  0mm 83 W/m2
12:29 79.1 °F /  26.2 °C 59 °F /  15 °C 29.96in /  1014.4hPa WNW 3.2mph /  5.1km/h 15mph /  24.1km/h 50.2% 0.00in /  0mm 162 W/m2
12:34 79.1 °F /  26.2 °C 58.9 °F /  14.9 °C 29.96in /  1014.4hPa WNW 3.7mph /  6km/h 15mph /  24.1km/h 50.1% 0.00in /  0mm 84 W/m2
12:39 79.2 °F /  26.2 °C 59.2 °F /  15.1 °C 29.96in /  1014.4hPa West 1.7mph /  2.7km/h 14mph /  22.5km/h 50.4% 0.00in /  0mm 163 W/m2
12:44 79.4 °F /  26.3 °C 59.6 °F /  15.3 °C 29.96in /  1014.4hPa NW 3mph /  4.8km/h 14mph /  22.5km/h 50.7% 0.00in /  0mm 156 W/m2
12:49 79.6 °F /  26.4 °C 58.7 °F /  14.8 °C 29.96in /  1014.4hPa WNW 2.6mph /  4.2km/h 14mph /  22.5km/h 48.9% 0.00in /  0mm 83 W/m2
12:54 79.7 °F /  26.5 °C 59 °F /  15 °C 29.96in /  1014.4hPa NW 3.3mph /  5.3km/h 14mph /  22.5km/h 49.2% 0.00in /  0mm 167 W/m2
12:59 79.8 °F /  26.6 °C 59.4 °F /  15.2 °C 29.96in /  1014.4hPa NNW 1.4mph /  2.3km/h 14mph /  22.5km/h 49.8% 0.00in /  0mm 167 W/m2
13:04 79.9 °F /  26.6 °C 59.5 °F /  15.3 °C 29.96in /  1014.4hPa NW 3.3mph /  5.3km/h 14mph /  22.5km/h 49.7% 0.00in /  0mm 121 W/m2
13:09 80.1 °F /  26.7 °C 60.4 °F /  15.8 °C 29.96in /  1014.4hPa WNW 0.4mph /  0.6km/h 9mph /  14.5km/h 51.1% 0.00in /  0mm 144 W/m2
13:14 80.2 °F /  26.8 °C 61.2 °F /  16.2 °C 29.96in /  1014.4hPa WNW 1.6mph /  2.6km/h 9mph /  14.5km/h 52.3% 0.00in /  0mm 114 W/m2
13:19 80.4 °F /  26.9 °C 60.9 °F /  16.1 °C 29.96in /  1014.4hPa WNW 2.2mph /  3.5km/h 9mph /  14.5km/h 51.6% 0.00in /  0mm 98 W/m2
13:24 80.4 °F /  26.9 °C 60.7 °F /  15.9 °C 29.96in /  1014.4hPa West 1.7mph /  2.7km/h 10mph /  16.1km/h 51.1% 0.00in /  0mm 67 W/m2
13:29 80.5 °F /  26.9 °C 60.9 °F /  16.1 °C 29.96in /  1014.4hPa West 3.6mph /  5.8km/h 10mph /  16.1km/h 51.3% 0.00in /  0mm 144 W/m2
13:34 80.5 °F /  26.9 °C 60 °F /  15.6 °C 29.96in /  1014.4hPa West 3.4mph /  5.5km/h 11mph /  17.7km/h 49.7% 0.00in /  0mm 171 W/m2
13:39 80.5 °F /  26.9 °C 58.9 °F /  14.9 °C 29.96in /  1014.4hPa NW 4.4mph /  7.1km/h 13mph /  20.9km/h 47.8% 0.00in /  0mm 81 W/m2
13:44 80.3 °F /  26.8 °C 56.9 °F /  13.8 °C 29.96in /  1014.4hPa WNW 5.2mph /  8.4km/h 15mph /  24.1km/h 44.7% 0.00in /  0mm 54 W/m2
13:49 80.1 °F /  26.7 °C 57.1 °F /  13.9 °C 29.96in /  1014.4hPa NNW 4.1mph /  6.6km/h 15mph /  24.1km/h 45.3% 0.00in /  0mm 53 W/m2
13:54 79.9 °F /  26.6 °C 57.2 °F /  14 °C 29.96in /  1014.4hPa NW 3.8mph /  6.1km/h 15mph /  24.1km/h 45.8% 0.00in /  0mm 54 W/m2
13:59 79.8 °F /  26.6 °C 57.1 °F /  13.9 °C 29.96in /  1014.4hPa NW 2.6mph /  4.2km/h 15mph /  24.1km/h 45.9% 0.00in /  0mm 58 W/m2
14:04 79.7 °F /  26.5 °C 57.7 °F /  14.3 °C 29.96in /  1014.4hPa NW 1.5mph /  2.4km/h 15mph /  24.1km/h 47% 0.00in /  0mm 62 W/m2
14:09 79.9 °F /  26.6 °C 57.7 °F /  14.3 °C 29.96in /  1014.4hPa WNW 3.8mph /  6.1km/h 13mph /  20.9km/h 46.8% 0.00in /  0mm 62 W/m2
14:14 79.9 °F /  26.6 °C 57.6 °F /  14.2 °C 29.96in /  1014.4hPa NW 2.9mph /  4.7km/h 13mph /  20.9km/h 46.4% 0.00in /  0mm 128 W/m2
14:19 80.1 °F /  26.7 °C 58.4 °F /  14.7 °C 29.96in /  1014.4hPa WNW 2mph /  3.2km/h 13mph /  20.9km/h 47.5% 0.00in /  0mm 230 W/m2
14:24 80.4 °F /  26.9 °C 57.4 °F /  14.1 °C 29.96in /  1014.4hPa WNW 3.6mph /  5.8km/h 15mph /  24.1km/h 45.5% 0.00in /  0mm 761 W/m2
14:29 80.9 °F /  27.2 °C 57.9 °F /  14.4 °C 29.96in /  1014.4hPa NW 5mph /  8km/h 16mph /  25.7km/h 45.5% 0.00in /  0mm 758 W/m2
14:34 80.9 °F /  27.2 °C 56.6 °F /  13.7 °C 29.96in /  1014.4hPa NW 5.5mph /  8.9km/h 17mph /  27.4km/h 43.3% 0.00in /  0mm 744 W/m2
14:39 80.7 °F /  27.1 °C 57.5 °F /  14.2 °C 29.96in /  1014.4hPa WNW 2.4mph /  3.9km/h 17mph /  27.4km/h 45.2% 0.00in /  0mm 742 W/m2
14:44 80.7 °F /  27.1 °C 57 °F /  13.9 °C 29.96in /  1014.4hPa WNW 4.3mph /  6.9km/h 17mph /  27.4km/h 44.3% 0.00in /  0mm 742 W/m2
14:49 80.9 °F /  27.2 °C 58 °F /  14.4 °C 29.95in /  1014.1hPa WNW 3.6mph /  5.8km/h 17mph /  27.4km/h 45.8% 0.00in /  0mm 740 W/m2
14:54 81 °F /  27.2 °C 58.1 °F /  14.5 °C 29.95in /  1014.1hPa NW 3mph /  4.8km/h 17mph /  27.4km/h 45.6% 0.00in /  0mm 615 W/m2
14:59 81 °F /  27.2 °C 58.7 °F /  14.8 °C 29.95in /  1014.1hPa NW 2.2mph /  3.5km/h 17mph /  27.4km/h 46.6% 0.00in /  0mm 691 W/m2
15:04 81.1 °F /  27.3 °C 59.1 °F /  15.1 °C 29.95in /  1014.1hPa WNW 3.3mph /  5.3km/h 17mph /  27.4km/h 47.2% 0.00in /  0mm 691 W/m2
15:09 81.2 °F /  27.3 °C 59.8 °F /  15.4 °C 29.94in /  1013.8hPa NW 1.6mph /  2.6km/h 13mph /  20.9km/h 48.3% 0.00in /  0mm 677 W/m2
15:14 81.3 °F /  27.4 °C 58.6 °F /  14.8 °C 29.95in /  1014.1hPa WNW 4.6mph /  7.4km/h 13mph /  20.9km/h 46.1% 0.00in /  0mm 652 W/m2
15:19 81.4 °F /  27.4 °C 58 °F /  14.4 °C 29.95in /  1014.1hPa WNW 4.7mph /  7.6km/h 14mph /  22.5km/h 45% 0.00in /  0mm 647 W/m2
15:24 81.4 °F /  27.4 °C 58 °F /  14.4 °C 29.95in /  1014.1hPa NW 3mph /  4.8km/h 14mph /  22.5km/h 44.9% 0.00in /  0mm 629 W/m2
15:29 81.5 °F /  27.5 °C 59.1 °F /  15.1 °C 29.95in /  1014.1hPa NW 2.3mph /  3.7km/h 14mph /  22.5km/h 46.5% 0.00in /  0mm 619 W/m2
15:34 81.8 °F /  27.7 °C 59.2 °F /  15.1 °C 29.95in /  1014.1hPa NW 1.7mph /  2.7km/h 14mph /  22.5km/h 46.3% 0.00in /  0mm 601 W/m2
15:39 82.1 °F /  27.8 °C 59.7 °F /  15.4 °C 29.95in /  1014.1hPa WNW 2.8mph /  4.5km/h 7mph /  11.3km/h 46.7% 0.00in /  0mm 584 W/m2
15:44 82.3 °F /  27.9 °C 59.8 °F /  15.4 °C 29.94in /  1013.8hPa WNW 2.6mph /  4.2km/h 8mph /  12.9km/h 46.6% 0.00in /  0mm 568 W/m2
15:48 82.2 °F /  27.9 °C 60.1 °F /  15.6 °C 29.94in /  1013.8hPa WNW 3mph /  4.8km/h 9mph /  14.5km/h 47.2% 0.00in /  0mm 550 W/m2
15:54 81.9 °F /  27.7 °C 60.3 °F /  15.7 °C 29.94in /  1013.8hPa WNW 1.4mph /  2.3km/h 9mph /  14.5km/h 48.1% 0.00in /  0mm 538 W/m2
15:59 81.6 °F /  27.6 °C 60.1 °F /  15.6 °C 29.93in /  1013.4hPa WNW 1.2mph /  1.9km/h 9mph /  14.5km/h 48.2% 0.00in /  0mm 466 W/m2
16:09 80.7 °F /  27.1 °C 59.2 °F /  15.1 °C 29.94in /  1013.8hPa NNW 0.7mph /  1.1km/h 4mph /  6.4km/h 48% 0.00in /  0mm 54 W/m2
16:14 80.6 °F /  27 °C 59.7 °F /  15.4 °C 29.94in /  1013.8hPa NW 1.9mph /  3.1km/h 6mph /  9.7km/h 49.1% 0.00in /  0mm 54 W/m2
16:19 80.5 °F /  26.9 °C 59.6 °F /  15.3 °C 29.94in /  1013.8hPa West 1.6mph /  2.6km/h 11mph /  17.7km/h 49.1% 0.00in /  0mm 53 W/m2
16:24 80.4 °F /  26.9 °C 59.5 °F /  15.3 °C 29.94in /  1013.8hPa WNW 1.3mph /  2.1km/h 11mph /  17.7km/h 49% 0.00in /  0mm 53 W/m2
16:29 80.2 °F /  26.8 °C 59.8 °F /  15.4 °C 29.95in /  1014.1hPa WNW 0.2mph /  0.3km/h 11mph /  17.7km/h 49.8% 0.00in /  0mm 72 W/m2
16:34 80 °F /  26.7 °C 59.9 °F /  15.5 °C 29.95in /  1014.1hPa WNW 1.3mph /  2.1km/h 11mph /  17.7km/h 50.4% 0.00in /  0mm 81 W/m2
16:39 79.8 °F /  26.6 °C 59.6 °F /  15.3 °C 29.95in /  1014.1hPa WNW 0.1mph /  0.2km/h 5mph /  8km/h 50.1% 0.00in /  0mm 107 W/m2
16:44 79.7 °F /  26.5 °C 60.1 °F /  15.6 °C 29.95in /  1014.1hPa WNW 1.4mph /  2.3km/h 5mph /  8km/h 51.1% 0.00in /  0mm 118 W/m2
16:49 79.7 °F /  26.5 °C 60.7 °F /  15.9 °C 29.95in /  1014.1hPa North 0.8mph /  1.3km/h 5mph /  8km/h 52.3% 0.00in /  0mm 116 W/m2
16:54 79.7 °F /  26.5 °C 60.4 °F /  15.8 °C 29.95in /  1014.1hPa NNW 0.6mph /  1km/h 5mph /  8km/h 51.8% 0.00in /  0mm 102 W/m2
16:59 79.8 °F /  26.6 °C 60.4 °F /  15.8 °C 29.95in /  1014.1hPa NNW 1mph /  1.6km/h 5mph /  8km/h 51.7% 0.00in /  0mm 54 W/m2
17:04 79.8 °F /  26.6 °C 60.1 °F /  15.6 °C 29.95in /  1014.1hPa NW 1.6mph /  2.6km/h 7mph /  11.3km/h 51.1% 0.00in /  0mm 53 W/m2
17:09 79.8 °F /  26.6 °C 60.3 °F /  15.7 °C 29.95in /  1014.1hPa WNW 0.4mph /  0.6km/h 7mph /  11.3km/h 51.4% 0.00in /  0mm 49 W/m2
17:14 79.7 °F /  26.5 °C 59.9 °F /  15.5 °C 29.95in /  1014.1hPa WNW 0.4mph /  0.6km/h 7mph /  11.3km/h 50.9% 0.00in /  0mm 47 W/m2
17:19 79.6 °F /  26.4 °C 60.4 °F /  15.8 °C 29.96in /  1014.4hPa WSW 0.5mph /  0.8km/h 7mph /  11.3km/h 52% 0.00in /  0mm 63 W/m2
17:24 79.4 °F /  26.3 °C 60.4 °F /  15.8 °C 29.95in /  1014.1hPa Calm   7mph /  11.3km/h 52.3% 0.00in /  0mm 62 W/m2
17:29 79.3 °F /  26.3 °C 60.8 °F /  16 °C 29.95in /  1014.1hPa West 0.1mph /  0.2km/h 7mph /  11.3km/h 53.2% 0.00in /  0mm 67 W/m2
17:34 79.1 °F /  26.2 °C 60.6 °F /  15.9 °C 29.95in /  1014.1hPa Calm   7mph /  11.3km/h 53.1% 0.00in /  0mm 62 W/m2
17:39 79 °F /  26.1 °C 60.3 °F /  15.7 °C 29.96in /  1014.4hPa Calm     52.8% 0.00in /  0mm 70 W/m2
17:44 79 °F /  26.1 °C 60.5 °F /  15.8 °C 29.96in /  1014.4hPa West 0.1mph /  0.2km/h 3mph /  4.8km/h 53.2% 0.00in /  0mm 70 W/m2
17:49 78.9 °F /  26.1 °C 60.5 °F /  15.8 °C 29.96in /  1014.4hPa NW 0.5mph /  0.8km/h 3mph /  4.8km/h 53.4% 0.00in /  0mm 60 W/m2
17:54 78.9 °F /  26.1 °C 59.8 °F /  15.4 °C 29.96in /  1014.4hPa NW 0.4mph /  0.6km/h 5mph /  8km/h 52.1% 0.00in /  0mm 60 W/m2
17:59 78.9 °F /  26.1 °C 59.9 °F /  15.5 °C 29.96in /  1014.4hPa NW 0.3mph /  0.5km/h 5mph /  8km/h 52.2% 0.00in /  0mm 58 W/m2
18:04 78.9 °F /  26.1 °C 59.5 °F /  15.3 °C 29.96in /  1014.4hPa NW 1.2mph /  1.9km/h 6mph /  9.7km/h 51.6% 0.00in /  0mm 30 W/m2
18:09 78.7 °F /  25.9 °C 59.7 °F /  15.4 °C 29.96in /  1014.4hPa Calm   6mph /  9.7km/h 52.2% 0.00in /  0mm 23 W/m2
18:14 78.6 °F /  25.9 °C 60 °F /  15.6 °C 29.96in /  1014.4hPa NW 0.2mph /  0.3km/h 6mph /  9.7km/h 52.8% 0.00in /  0mm 21 W/m2
18:19 78.4 °F /  25.8 °C 59.4 °F /  15.2 °C 29.96in /  1014.4hPa NW 0.1mph /  0.2km/h 6mph /  9.7km/h 52% 0.00in /  0mm 19 W/m2
18:24 78.3 °F /  25.7 °C 59.7 °F /  15.4 °C 29.97in /  1014.8hPa Calm   6mph /  9.7km/h 52.9% 0.00in /  0mm 16 W/m2
18:29 78.1 °F /  25.6 °C 59.8 °F /  15.4 °C 29.97in /  1014.8hPa NW 0.1mph /  0.2km/h 6mph /  9.7km/h 53.3% 0.00in /  0mm 14 W/m2
18:34 77.9 °F /  25.5 °C 59.4 °F /  15.2 °C 29.97in /  1014.8hPa NW 0.7mph /  1.1km/h 6mph /  9.7km/h 53% 0.00in /  0mm 11 W/m2
18:39 77.6 °F /  25.3 °C 59.6 °F /  15.3 °C 29.97in /  1014.8hPa Calm   3mph /  4.8km/h 54% 0.00in /  0mm 9 W/m2
18:44 77.3 °F /  25.2 °C 59.7 °F /  15.4 °C 29.97in /  1014.8hPa Calm   3mph /  4.8km/h 54.6% 0.00in /  0mm 7 W/m2
18:49 77.1 °F /  25.1 °C 60.1 °F /  15.6 °C 29.98in /  1015.1hPa Calm   3mph /  4.8km/h 55.7% 0.00in /  0mm 5 W/m2
18:54 76.9 °F /  24.9 °C 60.4 °F /  15.8 °C 29.98in /  1015.1hPa Calm   3mph /  4.8km/h 56.7% 0.00in /  0mm 0 W/m2
18:59 76.7 °F /  24.8 °C 60.3 °F /  15.7 °C 29.98in /  1015.1hPa Calm   3mph /  4.8km/h 57% 0.00in /  0mm 0 W/m2
19:04 76.5 °F /  24.7 °C 60.4 °F /  15.8 °C 29.98in /  1015.1hPa Calm   3mph /  4.8km/h 57.7% 0.00in /  0mm 0 W/m2
19:09 76.2 °F /  24.6 °C 60.7 °F /  15.9 °C 29.98in /  1015.1hPa Calm     58.7% 0.00in /  0mm 0 W/m2
19:14 75.9 °F /  24.4 °C 61 °F /  16.1 °C 29.98in /  1015.1hPa Calm     59.8% 0.00in /  0mm 0 W/m2
19:19 75.5 °F /  24.2 °C 60.9 °F /  16.1 °C 29.98in /  1015.1hPa Calm   1mph /  1.6km/h 60.4% 0.00in /  0mm 0 W/m2
19:24 75.2 °F /  24 °C 60.9 °F /  16.1 °C 29.98in /  1015.1hPa Calm   1mph /  1.6km/h 61.2% 0.00in /  0mm 0 W/m2
19:29 74.9 °F /  23.8 °C 60.9 °F /  16.1 °C 29.98in /  1015.1hPa Calm   1mph /  1.6km/h 61.9% 0.00in /  0mm 0 W/m2
19:34 74.6 °F /  23.7 °C 60.7 °F /  15.9 °C 29.99in /  1015.5hPa Calm   1mph /  1.6km/h 62% 0.00in /  0mm 0 W/m2
19:39 74.3 °F /  23.5 °C 60.7 °F /  15.9 °C 29.99in /  1015.5hPa Calm     62.6% 0.00in /  0mm 0 W/m2
19:44 74 °F /  23.3 °C 61 °F /  16.1 °C 29.99in /  1015.5hPa Calm     63.8% 0.00in /  0mm 0 W/m2
19:49 73.7 °F /  23.2 °C 60.8 °F /  16 °C 29.99in /  1015.5hPa Calm     64% 0.00in /  0mm 0 W/m2
19:54 73.4 °F /  23 °C 60.5 °F /  15.8 °C 29.99in /  1015.5hPa Calm     64% 0.00in /  0mm 0 W/m2
19:59 73.1 °F /  22.8 °C 60.6 °F /  15.9 °C 29.99in /  1015.5hPa Calm     64.9% 0.00in /  0mm 0 W/m2
20:00 73 °F /  22.8 °C 60.6 °F /  15.9 °C 29.99in /  1015.5hPa Calm     65% 0.00in /  0mm 0 W/m2
20:09 72.6 °F /  22.6 °C 60.6 °F /  15.9 °C 30.00in /  1015.8hPa Calm     66% 0.00in /  0mm 0 W/m2
20:14 72.4 °F /  22.4 °C 60.7 °F /  15.9 °C 30.00in /  1015.8hPa Calm     66.6% 0.00in /  0mm 0 W/m2
20:19 72.1 °F /  22.3 °C 60.9 °F /  16.1 °C 30.00in /  1015.8hPa Calm     67.9% 0.00in /  0mm 0 W/m2
20:24 71.9 °F /  22.2 °C 61.1 °F /  16.2 °C 30.00in /  1015.8hPa Calm     69% 0.00in /  0mm 0 W/m2
20:29 71.6 °F /  22 °C 61.2 °F /  16.2 °C 30.01in /  1016.1hPa Calm     69.9% 0.00in /  0mm 0 W/m2
20:34 71.3 °F /  21.8 °C 61.3 °F /  16.3 °C 30.01in /  1016.1hPa Calm     70.7% 0.00in /  0mm 0 W/m2
20:39 70.9 °F /  21.6 °C 61.3 °F /  16.3 °C 30.01in /  1016.1hPa Calm     71.5% 0.00in /  0mm 0 W/m2
20:44 70.5 °F /  21.4 °C 61.4 °F /  16.3 °C 30.01in /  1016.1hPa Calm     72.8% 0.00in /  0mm 0 W/m2
20:49 70.1 °F /  21.2 °C 61.1 °F /  16.2 °C 30.01in /  1016.1hPa Calm     73.1% 0.00in /  0mm 0 W/m2
20:54 69.7 °F /  20.9 °C 61.1 °F /  16.2 °C 30.01in /  1016.1hPa Calm     74% 0.00in /  0mm 0 W/m2
20:59 69.5 °F /  20.8 °C 60.8 °F /  16 °C 30.01in /  1016.1hPa Calm     74% 0.00in /  0mm 0 W/m2
21:04 69.2 °F /  20.7 °C 60.5 °F /  15.8 °C 30.01in /  1016.1hPa Calm     73.8% 0.00in /  0mm 0 W/m2
21:09 69 °F /  20.6 °C 60.4 °F /  15.8 °C 30.01in /  1016.1hPa Calm     74% 0.00in /  0mm 0 W/m2
21:14 68.9 °F /  20.5 °C 60.6 °F /  15.9 °C 30.02in /  1016.5hPa Calm     74.8% 0.00in /  0mm 0 W/m2
21:19 68.7 °F /  20.4 °C 60.9 °F /  16.1 °C 30.02in /  1016.5hPa Calm     76.1% 0.00in /  0mm 0 W/m2
21:24 68.5 °F /  20.3 °C 61.1 °F /  16.2 °C 30.02in /  1016.5hPa Calm     77.3% 0.00in /  0mm 0 W/m2
21:29 68.2 °F /  20.1 °C 60.8 °F /  16 °C 30.02in /  1016.5hPa Calm     77.2% 0.00in /  0mm 0 W/m2
21:34 67.9 °F /  19.9 °C 60.4 °F /  15.8 °C 30.02in /  1016.5hPa Calm     77% 0.00in /  0mm 0 W/m2
21:39 67.6 °F /  19.8 °C 60.2 °F /  15.7 °C 30.02in /  1016.5hPa Calm     77% 0.00in /  0mm 0 W/m2
21:44 67.5 °F /  19.7 °C 60 °F /  15.6 °C 30.02in /  1016.5hPa Calm     77% 0.00in /  0mm 0 W/m2
21:49 67.4 °F /  19.7 °C 59.9 °F /  15.5 °C 30.02in /  1016.5hPa Calm     77% 0.00in /  0mm 0 W/m2
21:54 67.3 °F /  19.6 °C 59.8 °F /  15.4 °C 30.03in /  1016.8hPa Calm     77% 0.00in /  0mm 0 W/m2
21:59 67.2 °F /  19.6 °C 59.9 °F /  15.5 °C 30.03in /  1016.8hPa Calm     77.5% 0.00in /  0mm 0 W/m2
22:04 67.1 °F /  19.5 °C 60 °F /  15.6 °C 30.03in /  1016.8hPa Calm     78% 0.00in /  0mm 0 W/m2
22:09 67 °F /  19.4 °C 59.9 °F /  15.5 °C 30.03in /  1016.8hPa Calm     78% 0.00in /  0mm 0 W/m2
22:14 66.8 °F /  19.3 °C 59.7 °F /  15.4 °C 30.03in /  1016.8hPa Calm     78% 0.00in /  0mm 0 W/m2
22:19 66.7 °F /  19.3 °C 59.6 °F /  15.3 °C 30.03in /  1016.8hPa NW 0.1mph /  0.2km/h 2mph /  3.2km/h 78% 0.00in /  0mm 0 W/m2
22:24 66.6 °F /  19.2 °C 59.9 °F /  15.5 °C 30.03in /  1016.8hPa Calm   2mph /  3.2km/h 79% 0.00in /  0mm 0 W/m2
22:29 66.5 °F /  19.2 °C 59.8 °F /  15.4 °C 30.03in /  1016.8hPa Calm   2mph /  3.2km/h 79% 0.00in /  0mm 0 W/m2
22:34 66.5 °F /  19.2 °C 59.8 °F /  15.4 °C 30.03in /  1016.8hPa Calm   2mph /  3.2km/h 79% 0.00in /  0mm 0 W/m2
22:39 66.4 °F /  19.1 °C 59.9 °F /  15.5 °C 30.02in /  1016.5hPa Calm     79.4% 0.00in /  0mm 0 W/m2
22:44 66.4 °F /  19.1 °C 60.1 °F /  15.6 °C 30.01in /  1016.1hPa Calm   2mph /  3.2km/h 80% 0.00in /  0mm 0 W/m2
22:49 66.4 °F /  19.1 °C 60 °F /  15.6 °C 29.99in /  1015.5hPa Calm   2mph /  3.2km/h 79.9% 0.00in /  0mm 0 W/m2
22:54 66.4 °F /  19.1 °C 59.7 °F /  15.4 °C 29.97in /  1014.8hPa NNW 0.5mph /  0.8km/h 3mph /  4.8km/h 79% 0.00in /  0mm 0 W/m2
22:59 66.5 °F /  19.2 °C 59.2 °F /  15.1 °C 29.96in /  1014.4hPa NE 0.2mph /  0.3km/h 4mph /  6.4km/h 77.5% 0.00in /  0mm 0 W/m2
23:04 66.6 °F /  19.2 °C 59.2 °F /  15.1 °C 29.97in /  1014.8hPa Calm   4mph /  6.4km/h 77% 0.00in /  0mm 0 W/m2
23:09 66.8 °F /  19.3 °C 59.7 °F /  15.4 °C 29.98in /  1015.1hPa Calm   1mph /  1.6km/h 78.1% 0.00in /  0mm 0 W/m2
23:14 66.8 °F /  19.3 °C 60.1 °F /  15.6 °C 29.98in /  1015.1hPa Calm   1mph /  1.6km/h 79% 0.00in /  0mm 0 W/m2
23:19 66.8 °F /  19.3 °C 60.1 °F /  15.6 °C 29.99in /  1015.5hPa Calm   1mph /  1.6km/h 79% 0.00in /  0mm 0 W/m2
23:24 66.8 °F /  19.3 °C 60.1 °F /  15.6 °C 29.99in /  1015.5hPa Calm   1mph /  1.6km/h 79% 0.00in /  0mm 0 W/m2
23:29 66.8 °F /  19.3 °C 60.4 °F /  15.8 °C 29.99in /  1015.5hPa Calm   1mph /  1.6km/h 79.9% 0.00in /  0mm 0 W/m2
23:34 66.8 °F /  19.3 °C 60.3 °F /  15.7 °C 29.99in /  1015.5hPa Calm   1mph /  1.6km/h 79.5% 0.00in /  0mm 0 W/m2
23:39 66.7 °F /  19.3 °C 59.9 °F /  15.5 °C 29.99in /  1015.5hPa Calm     78.8% 0.00in /  0mm 0 W/m2
23:44 66.7 °F /  19.3 °C 60 °F /  15.6 °C 29.98in /  1015.1hPa Calm     79% 0.00in /  0mm 0 W/m2
23:49 66.6 °F /  19.2 °C 59.9 °F /  15.5 °C 29.99in /  1015.5hPa Calm     79% 0.00in /  0mm 0 W/m2
23:54 66.6 °F /  19.2 °C 59.9 °F /  15.5 °C 29.99in /  1015.5hPa Calm     79% 0.00in /  0mm 0 W/m2
23:59 66.6 °F /  19.2 °C 59.9 °F /  15.5 °C 29.98in /  1015.1hPa Calm     79% 0.00in /  0mm 0 W/m2
Hartford County Weather
Compliments of Weather Underground - 2 mb